sensor_id;sensor_type;location;lat;lon;timestamp;P1;durP1;ratioP1;P2;durP2;ratioP2
7531;SDS011;3807;49.030;8.714;2022-09-02T00:01:07;3.33;;;2.80;;
7531;SDS011;3807;49.030;8.714;2022-09-02T00:03:39;7.53;;;3.28;;
7531;SDS011;3807;49.030;8.714;2022-09-02T00:06:05;3.62;;;3.12;;
7531;SDS011;3807;49.030;8.714;2022-09-02T00:08:30;4.87;;;3.15;;
7531;SDS011;3807;49.030;8.714;2022-09-02T00:10:56;3.45;;;3.15;;
7531;SDS011;3807;49.030;8.714;2022-09-02T00:13:25;4.30;;;2.97;;
7531;SDS011;3807;49.030;8.714;2022-09-02T00:15:51;3.17;;;2.87;;
7531;SDS011;3807;49.030;8.714;2022-09-02T00:18:17;4.03;;;3.40;;
7531;SDS011;3807;49.030;8.714;2022-09-02T00:20:43;4.12;;;3.35;;
7531;SDS011;3807;49.030;8.714;2022-09-02T00:23:11;5.03;;;3.03;;
7531;SDS011;3807;49.030;8.714;2022-09-02T00:25:37;3.03;;;2.80;;
7531;SDS011;3807;49.030;8.714;2022-09-02T00:28:04;5.30;;;3.25;;
7531;SDS011;3807;49.030;8.714;2022-09-02T00:30:30;3.28;;;2.97;;
7531;SDS011;3807;49.030;8.714;2022-09-02T00:32:56;3.62;;;3.30;;
7531;SDS011;3807;49.030;8.714;2022-09-02T00:35:22;3.37;;;2.90;;
7531;SDS011;3807;49.030;8.714;2022-09-02T00:37:48;4.07;;;3.20;;
7531;SDS011;3807;49.030;8.714;2022-09-02T00:40:13;4.03;;;3.47;;
7531;SDS011;3807;49.030;8.714;2022-09-02T00:42:40;4.45;;;3.78;;
7531;SDS011;3807;49.030;8.714;2022-09-02T00:45:06;6.18;;;3.40;;
7531;SDS011;3807;49.030;8.714;2022-09-02T00:47:33;5.03;;;3.40;;
7531;SDS011;3807;49.030;8.714;2022-09-02T00:50:00;4.03;;;2.80;;
7531;SDS011;3807;49.030;8.714;2022-09-02T00:52:31;4.77;;;3.17;;
7531;SDS011;3807;49.030;8.714;2022-09-02T00:55:01;4.23;;;3.30;;
7531;SDS011;3807;49.030;8.714;2022-09-02T00:57:32;4.93;;;3.40;;
7531;SDS011;3807;49.030;8.714;2022-09-02T01:00:15;6.60;;;3.60;;
7531;SDS011;3807;49.030;8.714;2022-09-02T01:02:48;4.10;;;3.60;;
7531;SDS011;3807;49.030;8.714;2022-09-02T01:05:18;4.00;;;3.58;;
7531;SDS011;3807;49.030;8.714;2022-09-02T01:07:45;3.55;;;3.25;;
7531;SDS011;3807;49.030;8.714;2022-09-02T01:10:16;3.40;;;3.10;;
7531;SDS011;3807;49.030;8.714;2022-09-02T01:12:48;4.95;;;3.90;;
7531;SDS011;3807;49.030;8.714;2022-09-02T01:15:18;3.67;;;3.07;;
7531;SDS011;3807;49.030;8.714;2022-09-02T01:17:47;4.55;;;3.08;;
7531;SDS011;3807;49.030;8.714;2022-09-02T01:20:15;3.60;;;3.30;;
7531;SDS011;3807;49.030;8.714;2022-09-02T01:22:42;3.50;;;2.95;;
7531;SDS011;3807;49.030;8.714;2022-09-02T01:25:20;3.47;;;3.03;;
7531;SDS011;3807;49.030;8.714;2022-09-02T01:27:48;4.05;;;3.25;;
7531;SDS011;3807;49.030;8.714;2022-09-02T01:30:16;3.93;;;3.53;;
7531;SDS011;3807;49.030;8.714;2022-09-02T01:32:44;3.43;;;2.87;;
7531;SDS011;3807;49.030;8.714;2022-09-02T01:35:10;4.27;;;2.93;;
7531;SDS011;3807;49.030;8.714;2022-09-02T01:37:36;4.27;;;3.40;;
7531;SDS011;3807;49.030;8.714;2022-09-02T01:40:03;3.73;;;3.30;;
7531;SDS011;3807;49.030;8.714;2022-09-02T01:42:30;4.47;;;3.20;;
7531;SDS011;3807;49.030;8.714;2022-09-02T01:44:56;5.03;;;3.10;;
7531;SDS011;3807;49.030;8.714;2022-09-02T01:47:22;3.40;;;3.03;;
7531;SDS011;3807;49.030;8.714;2022-09-02T01:49:50;4.20;;;3.23;;
7531;SDS011;3807;49.030;8.714;2022-09-02T01:52:16;4.83;;;3.07;;
7531;SDS011;3807;49.030;8.714;2022-09-02T01:54:42;3.47;;;3.17;;
7531;SDS011;3807;49.030;8.714;2022-09-02T01:57:08;3.67;;;3.07;;
7531;SDS011;3807;49.030;8.714;2022-09-02T01:59:34;3.80;;;3.23;;
7531;SDS011;3807;49.030;8.714;2022-09-02T02:01:59;3.20;;;2.90;;
7531;SDS011;3807;49.030;8.714;2022-09-02T02:04:24;3.80;;;3.30;;
7531;SDS011;3807;49.030;8.714;2022-09-02T02:06:50;5.33;;;3.10;;
7531;SDS011;3807;49.030;8.714;2022-09-02T02:09:16;3.80;;;3.10;;
7531;SDS011;3807;49.030;8.714;2022-09-02T02:11:43;5.30;;;3.53;;
7531;SDS011;3807;49.030;8.714;2022-09-02T02:14:09;3.07;;;2.70;;
7531;SDS011;3807;49.030;8.714;2022-09-02T02:16:36;5.77;;;2.93;;
7531;SDS011;3807;49.030;8.714;2022-09-02T02:19:02;5.07;;;2.90;;
7531;SDS011;3807;49.030;8.714;2022-09-02T02:21:28;3.20;;;2.90;;
7531;SDS011;3807;49.030;8.714;2022-09-02T02:23:54;5.33;;;2.80;;
7531;SDS011;3807;49.030;8.714;2022-09-02T02:26:19;4.17;;;2.90;;
7531;SDS011;3807;49.030;8.714;2022-09-02T02:28:45;3.60;;;3.23;;
7531;SDS011;3807;49.030;8.714;2022-09-02T02:31:10;6.17;;;3.53;;
7531;SDS011;3807;49.030;8.714;2022-09-02T02:33:36;6.63;;;3.50;;
7531;SDS011;3807;49.030;8.714;2022-09-02T02:36:03;4.10;;;3.03;;
7531;SDS011;3807;49.030;8.714;2022-09-02T02:38:30;3.10;;;2.90;;
7531;SDS011;3807;49.030;8.714;2022-09-02T02:40:56;4.00;;;3.00;;
7531;SDS011;3807;49.030;8.714;2022-09-02T02:43:23;3.10;;;2.80;;
7531;SDS011;3807;49.030;8.714;2022-09-02T02:45:49;4.83;;;2.87;;
7531;SDS011;3807;49.030;8.714;2022-09-02T02:48:14;4.53;;;3.00;;
7531;SDS011;3807;49.030;8.714;2022-09-02T02:50:40;3.83;;;2.87;;
7531;SDS011;3807;49.030;8.714;2022-09-02T02:53:06;3.30;;;3.00;;
7531;SDS011;3807;49.030;8.714;2022-09-02T02:55:32;2.70;;;2.50;;
7531;SDS011;3807;49.030;8.714;2022-09-02T02:57:58;3.17;;;2.60;;
7531;SDS011;3807;49.030;8.714;2022-09-02T03:00:26;3.03;;;2.70;;
7531;SDS011;3807;49.030;8.714;2022-09-02T03:02:54;3.03;;;2.60;;
7531;SDS011;3807;49.030;8.714;2022-09-02T03:05:20;2.60;;;2.40;;
7531;SDS011;3807;49.030;8.714;2022-09-02T03:07:45;3.53;;;2.60;;
7531;SDS011;3807;49.030;8.714;2022-09-02T03:10:11;2.60;;;2.40;;
7531;SDS011;3807;49.030;8.714;2022-09-02T03:12:37;4.17;;;2.63;;
7531;SDS011;3807;49.030;8.714;2022-09-02T03:15:04;2.53;;;2.27;;
7531;SDS011;3807;49.030;8.714;2022-09-02T03:17:30;3.13;;;2.60;;
7531;SDS011;3807;49.030;8.714;2022-09-02T03:19:56;3.03;;;2.23;;
7531;SDS011;3807;49.030;8.714;2022-09-02T03:22:22;3.87;;;2.40;;
7531;SDS011;3807;49.030;8.714;2022-09-02T03:24:48;3.13;;;2.83;;
7531;SDS011;3807;49.030;8.714;2022-09-02T03:27:13;4.87;;;2.53;;
7531;SDS011;3807;49.030;8.714;2022-09-02T03:29:39;3.13;;;2.83;;
7531;SDS011;3807;49.030;8.714;2022-09-02T03:32:04;4.37;;;2.40;;
7531;SDS011;3807;49.030;8.714;2022-09-02T03:34:30;2.50;;;2.30;;
7531;SDS011;3807;49.030;8.714;2022-09-02T03:36:56;2.97;;;2.30;;
7531;SDS011;3807;49.030;8.714;2022-09-02T03:39:21;4.00;;;2.37;;
7531;SDS011;3807;49.030;8.714;2022-09-02T03:41:47;4.00;;;2.27;;
7531;SDS011;3807;49.030;8.714;2022-09-02T03:44:14;2.90;;;2.50;;
7531;SDS011;3807;49.030;8.714;2022-09-02T03:46:40;4.50;;;2.50;;
7531;SDS011;3807;49.030;8.714;2022-09-02T03:49:05;2.57;;;2.23;;
7531;SDS011;3807;49.030;8.714;2022-09-02T03:51:31;3.03;;;2.53;;
7531;SDS011;3807;49.030;8.714;2022-09-02T03:53:57;5.03;;;2.80;;
7531;SDS011;3807;49.030;8.714;2022-09-02T03:56:23;4.93;;;2.60;;
7531;SDS011;3807;49.030;8.714;2022-09-02T03:58:49;3.07;;;2.77;;
7531;SDS011;3807;49.030;8.714;2022-09-02T04:01:17;4.30;;;2.73;;
7531;SDS011;3807;49.030;8.714;2022-09-02T04:03:45;3.37;;;2.70;;
7531;SDS011;3807;49.030;8.714;2022-09-02T04:06:12;3.00;;;2.70;;
7531;SDS011;3807;49.030;8.714;2022-09-02T04:08:40;4.70;;;2.70;;
7531;SDS011;3807;49.030;8.714;2022-09-02T04:11:11;3.50;;;2.47;;
7531;SDS011;3807;49.030;8.714;2022-09-02T04:13:39;2.87;;;2.60;;
7531;SDS011;3807;49.030;8.714;2022-09-02T04:16:05;2.87;;;2.50;;
7531;SDS011;3807;49.030;8.714;2022-09-02T04:21:56;3.03;;;2.60;;
7531;SDS011;3807;49.030;8.714;2022-09-02T04:24:22;4.23;;;3.07;;
7531;SDS011;3807;49.030;8.714;2022-09-02T04:26:48;3.50;;;2.50;;
7531;SDS011;3807;49.030;8.714;2022-09-02T04:29:13;3.50;;;2.80;;
7531;SDS011;3807;49.030;8.714;2022-09-02T04:31:39;2.90;;;2.53;;
7531;SDS011;3807;49.030;8.714;2022-09-02T04:34:04;3.00;;;2.40;;
7531;SDS011;3807;49.030;8.714;2022-09-02T04:36:30;3.50;;;2.57;;
7531;SDS011;3807;49.030;8.714;2022-09-02T04:38:56;2.73;;;2.37;;
7531;SDS011;3807;49.030;8.714;2022-09-02T04:41:23;2.80;;;2.60;;
7531;SDS011;3807;49.030;8.714;2022-09-02T04:43:53;4.70;;;2.70;;
7531;SDS011;3807;49.030;8.714;2022-09-02T04:46:21;2.50;;;2.27;;
7531;SDS011;3807;49.030;8.714;2022-09-02T04:48:47;2.87;;;2.60;;
7531;SDS011;3807;49.030;8.714;2022-09-02T04:51:14;3.40;;;2.80;;
7531;SDS011;3807;49.030;8.714;2022-09-02T04:53:41;4.67;;;2.70;;
7531;SDS011;3807;49.030;8.714;2022-09-02T04:56:09;3.07;;;2.67;;
7531;SDS011;3807;49.030;8.714;2022-09-02T04:58:36;2.93;;;2.40;;
7531;SDS011;3807;49.030;8.714;2022-09-02T05:01:06;2.87;;;2.57;;
7531;SDS011;3807;49.030;8.714;2022-09-02T05:03:32;2.73;;;2.10;;
7531;SDS011;3807;49.030;8.714;2022-09-02T05:06:03;3.17;;;2.37;;
7531;SDS011;3807;49.030;8.714;2022-09-02T05:08:30;3.17;;;2.47;;
7531;SDS011;3807;49.030;8.714;2022-09-02T05:10:56;4.17;;;2.73;;
7531;SDS011;3807;49.030;8.714;2022-09-02T05:13:22;2.77;;;2.57;;
7531;SDS011;3807;49.030;8.714;2022-09-02T05:15:47;3.57;;;2.80;;
7531;SDS011;3807;49.030;8.714;2022-09-02T05:18:13;3.13;;;2.73;;
7531;SDS011;3807;49.030;8.714;2022-09-02T05:20:40;2.93;;;2.60;;
7531;SDS011;3807;49.030;8.714;2022-09-02T05:23:07;3.10;;;2.40;;
7531;SDS011;3807;49.030;8.714;2022-09-02T05:25:35;3.27;;;2.47;;
7531;SDS011;3807;49.030;8.714;2022-09-02T05:28:01;2.57;;;2.37;;
7531;SDS011;3807;49.030;8.714;2022-09-02T05:30:27;2.53;;;2.33;;
7531;SDS011;3807;49.030;8.714;2022-09-02T05:32:53;5.77;;;2.90;;
7531;SDS011;3807;49.030;8.714;2022-09-02T05:35:18;5.57;;;2.80;;
7531;SDS011;3807;49.030;8.714;2022-09-02T05:37:43;3.93;;;2.53;;
7531;SDS011;3807;49.030;8.714;2022-09-02T05:40:09;2.80;;;2.60;;
7531;SDS011;3807;49.030;8.714;2022-09-02T05:42:36;4.57;;;2.70;;
7531;SDS011;3807;49.030;8.714;2022-09-02T05:45:02;7.87;;;3.10;;
7531;SDS011;3807;49.030;8.714;2022-09-02T05:47:28;9.37;;;2.87;;
7531;SDS011;3807;49.030;8.714;2022-09-02T05:49:53;11.17;;;2.77;;
7531;SDS011;3807;49.030;8.714;2022-09-02T05:52:19;17.90;;;3.70;;
7531;SDS011;3807;49.030;8.714;2022-09-02T05:54:44;9.23;;;3.23;;
7531;SDS011;3807;49.030;8.714;2022-09-02T05:57:11;14.93;;;2.90;;
7531;SDS011;3807;49.030;8.714;2022-09-02T05:59:39;20.97;;;2.90;;
7531;SDS011;3807;49.030;8.714;2022-09-02T06:02:09;16.23;;;2.80;;
7531;SDS011;3807;49.030;8.714;2022-09-02T06:04:40;14.60;;;2.70;;
7531;SDS011;3807;49.030;8.714;2022-09-02T06:07:07;7.00;;;2.57;;
7531;SDS011;3807;49.030;8.714;2022-09-02T06:09:33;4.53;;;2.30;;
7531;SDS011;3807;49.030;8.714;2022-09-02T06:11:59;9.07;;;3.80;;
7531;SDS011;3807;49.030;8.714;2022-09-02T06:14:25;3.23;;;2.20;;
7531;SDS011;3807;49.030;8.714;2022-09-02T06:16:51;7.80;;;2.00;;
7531;SDS011;3807;49.030;8.714;2022-09-02T06:19:19;5.13;;;2.33;;
7531;SDS011;3807;49.030;8.714;2022-09-02T06:21:45;6.03;;;2.10;;
7531;SDS011;3807;49.030;8.714;2022-09-02T06:24:11;4.10;;;2.03;;
7531;SDS011;3807;49.030;8.714;2022-09-02T06:26:37;2.30;;;2.00;;
7531;SDS011;3807;49.030;8.714;2022-09-02T06:29:04;2.50;;;2.30;;
7531;SDS011;3807;49.030;8.714;2022-09-02T06:31:30;2.60;;;2.10;;
7531;SDS011;3807;49.030;8.714;2022-09-02T06:33:56;2.47;;;2.00;;
7531;SDS011;3807;49.030;8.714;2022-09-02T06:36:22;3.77;;;2.00;;
7531;SDS011;3807;49.030;8.714;2022-09-02T06:38:51;4.80;;;2.00;;
7531;SDS011;3807;49.030;8.714;2022-09-02T06:41:19;3.43;;;1.87;;
7531;SDS011;3807;49.030;8.714;2022-09-02T06:43:53;2.37;;;1.90;;
7531;SDS011;3807;49.030;8.714;2022-09-02T06:46:21;2.20;;;1.80;;
7531;SDS011;3807;49.030;8.714;2022-09-02T06:48:49;3.43;;;2.03;;
7531;SDS011;3807;49.030;8.714;2022-09-02T06:51:18;2.20;;;2.00;;
7531;SDS011;3807;49.030;8.714;2022-09-02T06:53:45;3.97;;;2.13;;
7531;SDS011;3807;49.030;8.714;2022-09-02T06:56:11;3.73;;;1.90;;
7531;SDS011;3807;49.030;8.714;2022-09-02T06:58:36;3.83;;;2.20;;
7531;SDS011;3807;49.030;8.714;2022-09-02T07:01:02;3.00;;;1.80;;
7531;SDS011;3807;49.030;8.714;2022-09-02T07:03:27;5.07;;;2.50;;
7531;SDS011;3807;49.030;8.714;2022-09-02T07:06:12;4.20;;;2.20;;
7531;SDS011;3807;49.030;8.714;2022-09-02T07:08:38;5.20;;;2.30;;
7531;SDS011;3807;49.030;8.714;2022-09-02T07:11:06;2.23;;;2.03;;
7531;SDS011;3807;49.030;8.714;2022-09-02T07:13:39;2.50;;;2.00;;
7531;SDS011;3807;49.030;8.714;2022-09-02T07:16:05;5.97;;;2.00;;
7531;SDS011;3807;49.030;8.714;2022-09-02T07:18:31;3.40;;;2.20;;
7531;SDS011;3807;49.030;8.714;2022-09-02T07:20:58;3.87;;;1.90;;
7531;SDS011;3807;49.030;8.714;2022-09-02T07:23:24;4.70;;;2.20;;
7531;SDS011;3807;49.030;8.714;2022-09-02T07:25:50;2.20;;;2.00;;
7531;SDS011;3807;49.030;8.714;2022-09-02T07:28:15;4.87;;;1.93;;
7531;SDS011;3807;49.030;8.714;2022-09-02T07:30:41;2.07;;;1.67;;
7531;SDS011;3807;49.030;8.714;2022-09-02T07:33:09;2.83;;;2.13;;
7531;SDS011;3807;49.030;8.714;2022-09-02T07:35:36;6.30;;;2.20;;
7531;SDS011;3807;49.030;8.714;2022-09-02T07:38:02;2.30;;;1.53;;
7531;SDS011;3807;49.030;8.714;2022-09-02T07:40:28;5.20;;;2.20;;
7531;SDS011;3807;49.030;8.714;2022-09-02T07:42:54;2.43;;;1.77;;
7531;SDS011;3807;49.030;8.714;2022-09-02T07:45:19;3.30;;;1.93;;
7531;SDS011;3807;49.030;8.714;2022-09-02T07:47:45;5.73;;;2.37;;
7531;SDS011;3807;49.030;8.714;2022-09-02T07:50:10;3.53;;;1.90;;
7531;SDS011;3807;49.030;8.714;2022-09-02T07:52:37;2.97;;;1.50;;
7531;SDS011;3807;49.030;8.714;2022-09-02T07:55:03;2.23;;;1.67;;
7531;SDS011;3807;49.030;8.714;2022-09-02T07:57:30;3.03;;;2.00;;
7531;SDS011;3807;49.030;8.714;2022-09-02T07:59:55;2.63;;;1.97;;
7531;SDS011;3807;49.030;8.714;2022-09-02T08:02:21;2.87;;;1.80;;
7531;SDS011;3807;49.030;8.714;2022-09-02T08:04:46;1.80;;;1.53;;
7531;SDS011;3807;49.030;8.714;2022-09-02T08:07:12;2.10;;;1.90;;
7531;SDS011;3807;49.030;8.714;2022-09-02T08:09:37;2.93;;;2.57;;
7531;SDS011;3807;49.030;8.714;2022-09-02T08:12:03;4.27;;;2.00;;
7531;SDS011;3807;49.030;8.714;2022-09-02T08:14:29;2.57;;;1.80;;
7531;SDS011;3807;49.030;8.714;2022-09-02T08:16:55;3.40;;;2.23;;
7531;SDS011;3807;49.030;8.714;2022-09-02T08:19:21;16.33;;;2.70;;
7531;SDS011;3807;49.030;8.714;2022-09-02T08:21:48;5.80;;;1.97;;
7531;SDS011;3807;49.030;8.714;2022-09-02T08:24:13;3.03;;;1.70;;
7531;SDS011;3807;49.030;8.714;2022-09-02T08:26:39;3.80;;;2.00;;
7531;SDS011;3807;49.030;8.714;2022-09-02T08:29:05;4.07;;;2.37;;
7531;SDS011;3807;49.030;8.714;2022-09-02T08:31:31;5.07;;;1.90;;
7531;SDS011;3807;49.030;8.714;2022-09-02T08:33:58;3.90;;;2.30;;
7531;SDS011;3807;49.030;8.714;2022-09-02T08:36:24;4.03;;;2.80;;
7531;SDS011;3807;49.030;8.714;2022-09-02T08:38:50;2.30;;;1.97;;
7531;SDS011;3807;49.030;8.714;2022-09-02T08:41:20;4.90;;;1.80;;
7531;SDS011;3807;49.030;8.714;2022-09-02T08:43:46;6.37;;;2.07;;
7531;SDS011;3807;49.030;8.714;2022-09-02T08:46:14;2.57;;;1.90;;
7531;SDS011;3807;49.030;8.714;2022-09-02T08:48:48;2.40;;;1.70;;
7531;SDS011;3807;49.030;8.714;2022-09-02T08:54:02;6.00;;;2.10;;
7531;SDS011;3807;49.030;8.714;2022-09-02T08:56:44;3.33;;;1.90;;
7531;SDS011;3807;49.030;8.714;2022-09-02T08:59:10;3.53;;;1.60;;
7531;SDS011;3807;49.030;8.714;2022-09-02T09:07:02;4.57;;;1.77;;
7531;SDS011;3807;49.030;8.714;2022-09-02T09:09:38;3.27;;;1.83;;
7531;SDS011;3807;49.030;8.714;2022-09-02T09:14:54;3.27;;;1.73;;
7531;SDS011;3807;49.030;8.714;2022-09-02T09:20:16;6.93;;;1.80;;
7531;SDS011;3807;49.030;8.714;2022-09-02T09:22:47;6.60;;;1.70;;
7531;SDS011;3807;49.030;8.714;2022-09-02T09:25:14;9.70;;;3.33;;
7531;SDS011;3807;49.030;8.714;2022-09-02T09:27:40;2.53;;;1.57;;
7531;SDS011;3807;49.030;8.714;2022-09-02T09:30:07;2.67;;;1.60;;
7531;SDS011;3807;49.030;8.714;2022-09-02T09:32:39;4.80;;;1.47;;
7531;SDS011;3807;49.030;8.714;2022-09-02T09:35:09;5.00;;;1.90;;
7531;SDS011;3807;49.030;8.714;2022-09-02T09:40:38;1.50;;;1.40;;
7531;SDS011;3807;49.030;8.714;2022-09-02T09:42:59;5.47;;;1.80;;
7531;SDS011;3807;49.030;8.714;2022-09-02T09:45:38;1.90;;;1.60;;
7531;SDS011;3807;49.030;8.714;2022-09-02T09:48:14;1.67;;;1.40;;
7531;SDS011;3807;49.030;8.714;2022-09-02T09:50:41;3.33;;;1.70;;
7531;SDS011;3807;49.030;8.714;2022-09-02T09:58:44;1.70;;;1.37;;
7531;SDS011;3807;49.030;8.714;2022-09-02T10:01:16;2.47;;;1.23;;
7531;SDS011;3807;49.030;8.714;2022-09-02T10:03:50;7.33;;;1.40;;
7531;SDS011;3807;49.030;8.714;2022-09-02T10:08:54;1.60;;;1.20;;
7531;SDS011;3807;49.030;8.714;2022-09-02T10:11:22;1.30;;;1.10;;
7531;SDS011;3807;49.030;8.714;2022-09-02T10:13:48;1.83;;;1.10;;
7531;SDS011;3807;49.030;8.714;2022-09-02T10:18:58;3.80;;;1.10;;
7531;SDS011;3807;49.030;8.714;2022-09-02T10:24:03;2.20;;;1.17;;
7531;SDS011;3807;49.030;8.714;2022-09-02T10:26:56;1.30;;;1.10;;
7531;SDS011;3807;49.030;8.714;2022-09-02T10:37:40;4.10;;;1.30;;
7531;SDS011;3807;49.030;8.714;2022-09-02T10:40:29;7.00;;;2.40;;
7531;SDS011;3807;49.030;8.714;2022-09-02T10:43:06;6.43;;;1.63;;
7531;SDS011;3807;49.030;8.714;2022-09-02T10:50:45;7.53;;;1.50;;
7531;SDS011;3807;49.030;8.714;2022-09-02T10:56:00;3.77;;;1.40;;
7531;SDS011;3807;49.030;8.714;2022-09-02T11:01:24;2.57;;;1.20;;
7531;SDS011;3807;49.030;8.714;2022-09-02T11:06:37;1.10;;;1.00;;
7531;SDS011;3807;49.030;8.714;2022-09-02T11:09:08;2.80;;;1.10;;
7531;SDS011;3807;49.030;8.714;2022-09-02T11:11:41;1.40;;;1.00;;
7531;SDS011;3807;49.030;8.714;2022-09-02T11:14:19;2.30;;;1.12;;
7531;SDS011;3807;49.030;8.714;2022-09-02T11:25:40;4.40;;;1.25;;
7531;SDS011;3807;49.030;8.714;2022-09-02T11:31:03;1.27;;;1.00;;
7531;SDS011;3807;49.030;8.714;2022-09-02T11:33:41;2.85;;;1.52;;
7531;SDS011;3807;49.030;8.714;2022-09-02T11:36:13;1.73;;;1.00;;
7531;SDS011;3807;49.030;8.714;2022-09-02T11:38:48;1.30;;;0.98;;
7531;SDS011;3807;49.030;8.714;2022-09-02T11:41:20;1.98;;;1.23;;
7531;SDS011;3807;49.030;8.714;2022-09-02T11:49:40;1.65;;;1.00;;
7531;SDS011;3807;49.030;8.714;2022-09-02T11:52:23;1.45;;;1.08;;
7531;SDS011;3807;49.030;8.714;2022-09-02T11:54:51;2.53;;;1.15;;
7531;SDS011;3807;49.030;8.714;2022-09-02T11:57:28;0.90;;;0.90;;
7531;SDS011;3807;49.030;8.714;2022-09-02T12:07:54;2.50;;;1.00;;
7531;SDS011;3807;49.030;8.714;2022-09-02T12:13:07;1.48;;;0.85;;
7531;SDS011;3807;49.030;8.714;2022-09-02T12:21:23;0.98;;;0.88;;
7531;SDS011;3807;49.030;8.714;2022-09-02T12:26:16;2.78;;;1.20;;
7531;SDS011;3807;49.030;8.714;2022-09-02T12:28:42;1.23;;;1.00;;
7531;SDS011;3807;49.030;8.714;2022-09-02T12:33:46;1.75;;;1.08;;
7531;SDS011;3807;49.030;8.714;2022-09-02T12:44:51;3.30;;;1.10;;
7531;SDS011;3807;49.030;8.714;2022-09-02T12:52:59;2.70;;;1.10;;
7531;SDS011;3807;49.030;8.714;2022-09-02T12:55:34;1.65;;;0.88;;
7531;SDS011;3807;49.030;8.714;2022-09-02T12:58:09;2.08;;;1.15;;
7531;SDS011;3807;49.030;8.714;2022-09-02T13:31:03;7.05;;;1.92;;
7531;SDS011;3807;49.030;8.714;2022-09-02T13:33:30;4.32;;;1.25;;
7531;SDS011;3807;49.030;8.714;2022-09-02T13:35:56;1.95;;;1.00;;
7531;SDS011;3807;49.030;8.714;2022-09-02T13:38:24;1.60;;;0.95;;
7531;SDS011;3807;49.030;8.714;2022-09-02T13:40:51;1.02;;;0.80;;
7531;SDS011;3807;49.030;8.714;2022-09-02T13:43:20;1.45;;;1.00;;
7531;SDS011;3807;49.030;8.714;2022-09-02T13:45:48;8.15;;;1.15;;
7531;SDS011;3807;49.030;8.714;2022-09-02T13:48:24;4.20;;;0.98;;
7531;SDS011;3807;49.030;8.714;2022-09-02T13:50:52;4.25;;;1.48;;
7531;SDS011;3807;49.030;8.714;2022-09-02T13:55:48;1.60;;;1.00;;
7531;SDS011;3807;49.030;8.714;2022-09-02T13:58:24;5.87;;;1.05;;
7531;SDS011;3807;49.030;8.714;2022-09-02T14:00:55;3.15;;;1.20;;
7531;SDS011;3807;49.030;8.714;2022-09-02T14:03:22;3.78;;;1.10;;
7531;SDS011;3807;49.030;8.714;2022-09-02T14:05:49;2.37;;;1.08;;
7531;SDS011;3807;49.030;8.714;2022-09-02T14:08:20;1.77;;;0.95;;
7531;SDS011;3807;49.030;8.714;2022-09-02T14:10:48;1.05;;;0.95;;
7531;SDS011;3807;49.030;8.714;2022-09-02T14:13:16;3.03;;;1.10;;
7531;SDS011;3807;49.030;8.714;2022-09-02T14:15:42;1.60;;;1.00;;
7531;SDS011;3807;49.030;8.714;2022-09-02T14:18:09;2.65;;;0.82;;
7531;SDS011;3807;49.030;8.714;2022-09-02T14:20:38;2.60;;;1.00;;
7531;SDS011;3807;49.030;8.714;2022-09-02T14:23:16;1.10;;;0.88;;
7531;SDS011;3807;49.030;8.714;2022-09-02T14:25:48;1.77;;;0.85;;
7531;SDS011;3807;49.030;8.714;2022-09-02T14:28:19;1.12;;;0.90;;
7531;SDS011;3807;49.030;8.714;2022-09-02T14:30:55;1.92;;;0.95;;
7531;SDS011;3807;49.030;8.714;2022-09-02T14:33:24;3.15;;;1.05;;
7531;SDS011;3807;49.030;8.714;2022-09-02T14:36:08;6.72;;;0.93;;
7531;SDS011;3807;49.030;8.714;2022-09-02T14:38:57;1.83;;;0.90;;
7531;SDS011;3807;49.030;8.714;2022-09-02T14:41:46;2.25;;;1.10;;
7531;SDS011;3807;49.030;8.714;2022-09-02T14:44:15;6.07;;;1.00;;
7531;SDS011;3807;49.030;8.714;2022-09-02T14:49:23;0.80;;;0.80;;
7531;SDS011;3807;49.030;8.714;2022-09-02T14:51:53;3.37;;;1.15;;
7531;SDS011;3807;49.030;8.714;2022-09-02T14:57:26;3.75;;;1.08;;
7531;SDS011;3807;49.030;8.714;2022-09-02T15:00:09;1.35;;;1.00;;
7531;SDS011;3807;49.030;8.714;2022-09-02T15:02:39;1.30;;;1.10;;
7531;SDS011;3807;49.030;8.714;2022-09-02T15:05:07;1.37;;;1.00;;
7531;SDS011;3807;49.030;8.714;2022-09-02T15:07:35;1.12;;;1.00;;
7531;SDS011;3807;49.030;8.714;2022-09-02T15:10:01;1.35;;;0.98;;
7531;SDS011;3807;49.030;8.714;2022-09-02T15:12:28;1.02;;;0.82;;
7531;SDS011;3807;49.030;8.714;2022-09-02T15:14:57;1.30;;;1.00;;
7531;SDS011;3807;49.030;8.714;2022-09-02T15:17:23;1.50;;;1.00;;
7531;SDS011;3807;49.030;8.714;2022-09-02T15:19:49;2.92;;;0.95;;
7531;SDS011;3807;49.030;8.714;2022-09-02T15:22:15;1.40;;;0.65;;
7531;SDS011;3807;49.030;8.714;2022-09-02T15:24:41;0.93;;;0.73;;
7531;SDS011;3807;49.030;8.714;2022-09-02T15:27:11;1.55;;;0.90;;
7531;SDS011;3807;49.030;8.714;2022-09-02T15:29:37;1.62;;;0.95;;
7531;SDS011;3807;49.030;8.714;2022-09-02T15:32:03;3.33;;;0.93;;
7531;SDS011;3807;49.030;8.714;2022-09-02T15:34:29;8.32;;;1.40;;
7531;SDS011;3807;49.030;8.714;2022-09-02T15:36:55;1.65;;;0.82;;
7531;SDS011;3807;49.030;8.714;2022-09-02T15:39:22;2.97;;;0.98;;
7531;SDS011;3807;49.030;8.714;2022-09-02T15:41:49;2.67;;;1.00;;
7531;SDS011;3807;49.030;8.714;2022-09-02T15:44:16;2.35;;;0.85;;
7531;SDS011;3807;49.030;8.714;2022-09-02T15:46:41;4.12;;;1.52;;
7531;SDS011;3807;49.030;8.714;2022-09-02T15:49:08;4.20;;;1.20;;
7531;SDS011;3807;49.030;8.714;2022-09-02T15:51:35;3.87;;;1.37;;
7531;SDS011;3807;49.030;8.714;2022-09-02T15:54:07;3.70;;;1.05;;
7531;SDS011;3807;49.030;8.714;2022-09-02T15:56:34;1.52;;;1.00;;
7531;SDS011;3807;49.030;8.714;2022-09-02T15:59:02;2.05;;;0.70;;
7531;SDS011;3807;49.030;8.714;2022-09-02T16:01:31;1.23;;;0.75;;
7531;SDS011;3807;49.030;8.714;2022-09-02T16:03:58;2.60;;;0.90;;
7531;SDS011;3807;49.030;8.714;2022-09-02T16:06:28;1.35;;;0.93;;
7531;SDS011;3807;49.030;8.714;2022-09-02T16:08:54;2.58;;;0.95;;
7531;SDS011;3807;49.030;8.714;2022-09-02T16:11:21;3.33;;;1.62;;
7531;SDS011;3807;49.030;8.714;2022-09-02T16:13:47;5.25;;;0.80;;
7531;SDS011;3807;49.030;8.714;2022-09-02T16:16:13;2.08;;;1.00;;
7531;SDS011;3807;49.030;8.714;2022-09-02T16:18:39;2.22;;;0.85;;
7531;SDS011;3807;49.030;8.714;2022-09-02T16:21:06;2.10;;;1.10;;
7531;SDS011;3807;49.030;8.714;2022-09-02T16:23:33;1.92;;;1.10;;
7531;SDS011;3807;49.030;8.714;2022-09-02T16:28:37;6.53;;;1.35;;
7531;SDS011;3807;49.030;8.714;2022-09-02T16:31:05;2.97;;;1.20;;
7531;SDS011;3807;49.030;8.714;2022-09-02T16:33:31;1.73;;;0.90;;
7531;SDS011;3807;49.030;8.714;2022-09-02T16:35:57;1.25;;;1.10;;
7531;SDS011;3807;49.030;8.714;2022-09-02T16:38:22;2.78;;;1.05;;
7531;SDS011;3807;49.030;8.714;2022-09-02T16:40:48;2.47;;;1.10;;
7531;SDS011;3807;49.030;8.714;2022-09-02T16:43:17;3.17;;;1.20;;
7531;SDS011;3807;49.030;8.714;2022-09-02T16:45:45;2.55;;;1.00;;
7531;SDS011;3807;49.030;8.714;2022-09-02T16:48:15;1.20;;;1.00;;
7531;SDS011;3807;49.030;8.714;2022-09-02T16:50:43;1.75;;;1.25;;
7531;SDS011;3807;49.030;8.714;2022-09-02T16:53:11;2.17;;;1.10;;
7531;SDS011;3807;49.030;8.714;2022-09-02T16:55:40;1.30;;;1.00;;
7531;SDS011;3807;49.030;8.714;2022-09-02T16:58:07;2.87;;;1.20;;
7531;SDS011;3807;49.030;8.714;2022-09-02T17:00:35;1.85;;;1.00;;
7531;SDS011;3807;49.030;8.714;2022-09-02T17:03:10;1.55;;;1.25;;
7531;SDS011;3807;49.030;8.714;2022-09-02T17:05:36;1.77;;;1.10;;
7531;SDS011;3807;49.030;8.714;2022-09-02T17:08:02;2.03;;;0.90;;
7531;SDS011;3807;49.030;8.714;2022-09-02T17:10:28;1.77;;;1.12;;
7531;SDS011;3807;49.030;8.714;2022-09-02T17:12:54;1.98;;;1.20;;
7531;SDS011;3807;49.030;8.714;2022-09-02T17:15:20;1.23;;;1.10;;
7531;SDS011;3807;49.030;8.714;2022-09-02T17:17:46;1.55;;;1.10;;
7531;SDS011;3807;49.030;8.714;2022-09-02T17:20:13;4.05;;;1.30;;
7531;SDS011;3807;49.030;8.714;2022-09-02T17:22:40;1.67;;;1.42;;
7531;SDS011;3807;49.030;8.714;2022-09-02T17:25:06;1.10;;;0.93;;
7531;SDS011;3807;49.030;8.714;2022-09-02T17:27:34;1.40;;;1.12;;
7531;SDS011;3807;49.030;8.714;2022-09-02T17:30:03;1.48;;;1.05;;
7531;SDS011;3807;49.030;8.714;2022-09-02T17:32:31;2.90;;;1.00;;
7531;SDS011;3807;49.030;8.714;2022-09-02T17:34:59;2.20;;;1.20;;
7531;SDS011;3807;49.030;8.714;2022-09-02T17:37:26;1.42;;;1.10;;
7531;SDS011;3807;49.030;8.714;2022-09-02T17:39:51;1.33;;;1.15;;
7531;SDS011;3807;49.030;8.714;2022-09-02T17:42:17;2.05;;;0.90;;
7531;SDS011;3807;49.030;8.714;2022-09-02T17:44:45;1.90;;;1.00;;
7531;SDS011;3807;49.030;8.714;2022-09-02T17:47:19;1.67;;;1.00;;
7531;SDS011;3807;49.030;8.714;2022-09-02T17:49:46;1.67;;;1.10;;